Torm Kansas — OYNA2 — position and weather

sailwx.info

Track history (hours):
 
Tides and Currents Weather Stations Pressure Air Temp Water Temp Dewpoint Dewpoint Depression Visibility Wind Speed Wind Dir Waves Ship Positions

Torm Kansas

Last reported at 2018-Jan-05 21:23 UTC. Time now 2018-Jan-23 08:16 UTC.
Position S 32°28' W 071°42'.
Warning: this ship's position is 17 days out of date.

Length 183 m; draft 8.3 m.

Type: Tanker. MMSI: 220565000.

Date/timePositionNaut miles runAvg speedWind from/ knotsBaromVisibWave heightAir tempDewpointWater temp
2018-Jan-05 21:23S 32°28' W 071°42'410.8
2018-Jan-05 20:59S 32°33' W 071°41'510.6
2018-Jan-05 20:30S 32°38' W 071°39'510.8
2018-Jan-05 20:00S 32°43' W 071°38'4 8.4
2018-Jan-05 19:29S 32°44' W 071°33'3 0.1
2018-Jan-04 11:16S 32°45' W 071°30'0 0.1
2018-Jan-04 10:58S 32°45' W 071°30'0 0.1
2018-Jan-04 10:25S 32°45' W 071°30'0 0.0
2018-Jan-04 09:58S 32°45' W 071°30'0 0.0
2018-Jan-04 09:28S 32°45' W 071°30'0 0.0
2018-Jan-04 08:58S 32°45' W 071°30'0 0.0
2018-Jan-04 08:25S 32°45' W 071°30'0 0.0
2018-Jan-04 05:37S 32°45' W 071°30'0 0.0
2018-Jan-04 05:28S 32°45' W 071°30'1 0.6
2018-Jan-04 03:46S 32°45' W 071°31'1 4.2
2018-Jan-04 03:28S 32°45' W 071°33'6 9.2
2018-Jan-04 02:51S 32°45' W 071°40'  
Track history (hours):
 
Tides and Currents Weather Stations Pressure Air Temp Water Temp Dewpoint Dewpoint Depression Visibility Wind Speed Wind Dir Waves Ship Positions

Torm Kansas

Last reported at 2018-Jan-05 21:23 UTC. Time now 2018-Jan-23 08:16 UTC.
Position S 32°28' W 071°42'.
Warning: this ship's position is 17 days out of date.

Length 183 m; draft 8.3 m.

Type: Tanker. MMSI: 220565000.

Date/timePositionNaut miles runAvg speedWind from/ knotsBaromVisibWave heightAir tempDewpointWater temp
2018-Jan-05 21:23S 32°28' W 071°42'410.8
2018-Jan-05 20:59S 32°33' W 071°41'510.6
2018-Jan-05 20:30S 32°38' W 071°39'510.8
2018-Jan-05 20:00S 32°43' W 071°38'4 8.4
2018-Jan-05 19:29S 32°44' W 071°33'3 0.1
2018-Jan-04 11:16S 32°45' W 071°30'0 0.1
2018-Jan-04 10:58S 32°45' W 071°30'0 0.1
2018-Jan-04 10:25S 32°45' W 071°30'0 0.0
2018-Jan-04 09:58S 32°45' W 071°30'0 0.0
2018-Jan-04 09:28S 32°45' W 071°30'0 0.0
2018-Jan-04 08:58S 32°45' W 071°30'0 0.0
2018-Jan-04 08:25S 32°45' W 071°30'0 0.0
2018-Jan-04 05:37S 32°45' W 071°30'0 0.0
2018-Jan-04 05:28S 32°45' W 071°30'1 0.6
2018-Jan-04 03:46S 32°45' W 071°31'1 4.2
2018-Jan-04 03:28S 32°45' W 071°33'6 9.2
2018-Jan-04 02:51S 32°45' W 071°40'  

Dump ship's entire track history